sensor_id;sensor_type;location;lat;lon;timestamp;P1;durP1;ratioP1;P2;durP2;ratioP2
16837;SDS011;19510;54.486;9.046;2023-10-09T00:42:45;3.00;;;1.73;;
16837;SDS011;19510;54.486;9.046;2023-10-09T00:45:12;3.03;;;1.52;;
16837;SDS011;19510;54.486;9.046;2023-10-09T00:47:49;4.63;;;1.60;;
16837;SDS011;19510;54.486;9.046;2023-10-09T00:50:16;1.60;;;1.40;;
16837;SDS011;19510;54.486;9.046;2023-10-09T00:52:44;5.65;;;1.55;;
16837;SDS011;19510;54.486;9.046;2023-10-09T00:55:20;2.05;;;1.63;;
16837;SDS011;19510;54.486;9.046;2023-10-09T00:57:55;1.58;;;1.35;;
16837;SDS011;19510;54.486;9.046;2023-10-09T01:00:26;3.50;;;1.40;;
16837;SDS011;19510;54.486;9.046;2023-10-09T01:03:08;4.32;;;1.50;;
16837;SDS011;19510;54.486;9.046;2023-10-09T01:05:58;3.30;;;1.63;;
16837;SDS011;19510;54.486;9.046;2023-10-09T01:08:35;1.30;;;1.20;;
16837;SDS011;19510;54.486;9.046;2023-10-09T01:11:12;3.83;;;1.40;;
16837;SDS011;19510;54.486;9.046;2023-10-09T01:13:48;3.40;;;1.35;;
16837;SDS011;19510;54.486;9.046;2023-10-09T01:16:15;2.83;;;1.15;;
16837;SDS011;19510;54.486;9.046;2023-10-09T01:18:42;3.28;;;1.50;;
16837;SDS011;19510;54.486;9.046;2023-10-09T01:21:09;1.42;;;1.15;;
16837;SDS011;19510;54.486;9.046;2023-10-09T01:23:43;4.20;;;1.20;;
16837;SDS011;19510;54.486;9.046;2023-10-09T01:26:32;1.65;;;1.00;;
16837;SDS011;19510;54.486;9.046;2023-10-09T01:29:07;1.45;;;1.23;;
16837;SDS011;19510;54.486;9.046;2023-10-09T01:31:46;1.88;;;0.77;;
16837;SDS011;19510;54.486;9.046;2023-10-09T01:34:42;2.13;;;1.17;;
16837;SDS011;19510;54.486;9.046;2023-10-09T01:37:15;5.13;;;1.13;;
16837;SDS011;19510;54.486;9.046;2023-10-09T01:39:52;3.42;;;1.40;;
16837;SDS011;19510;54.486;9.046;2023-10-09T01:42:20;1.77;;;1.25;;
16837;SDS011;19510;54.486;9.046;2023-10-09T01:45:09;2.03;;;1.60;;
16837;SDS011;19510;54.486;9.046;2023-10-09T01:48:01;2.42;;;1.50;;
16837;SDS011;19510;54.486;9.046;2023-10-09T01:50:30;2.22;;;1.45;;
16837;SDS011;19510;54.486;9.046;2023-10-09T01:52:56;2.60;;;1.77;;
16837;SDS011;19510;54.486;9.046;2023-10-09T01:55:25;3.30;;;1.60;;
16837;SDS011;19510;54.486;9.046;2023-10-09T01:58:07;2.63;;;1.73;;
16837;SDS011;19510;54.486;9.046;2023-10-09T02:00:41;3.95;;;1.90;;
16837;SDS011;19510;54.486;9.046;2023-10-09T02:03:13;3.10;;;1.98;;
16837;SDS011;19510;54.486;9.046;2023-10-09T02:05:43;1.92;;;1.63;;
16837;SDS011;19510;54.486;9.046;2023-10-09T02:08:12;4.53;;;2.13;;
16837;SDS011;19510;54.486;9.046;2023-10-09T02:10:38;3.50;;;1.90;;
16837;SDS011;19510;54.486;9.046;2023-10-09T02:13:06;2.60;;;1.80;;
16837;SDS011;19510;54.486;9.046;2023-10-09T02:18:21;2.50;;;2.30;;
16837;SDS011;19510;54.486;9.046;2023-10-09T02:21:05;2.65;;;2.08;;
16837;SDS011;19510;54.486;9.046;2023-10-09T02:23:32;4.00;;;2.25;;
16837;SDS011;19510;54.486;9.046;2023-10-09T02:26:08;3.47;;;2.40;;
16837;SDS011;19510;54.486;9.046;2023-10-09T02:32:18;3.58;;;2.00;;
16837;SDS011;19510;54.486;9.046;2023-10-09T02:34:53;4.70;;;2.20;;
16837;SDS011;19510;54.486;9.046;2023-10-09T02:37:20;4.32;;;2.65;;
16837;SDS011;19510;54.486;9.046;2023-10-09T02:39:55;3.42;;;2.55;;
16837;SDS011;19510;54.486;9.046;2023-10-09T02:42:29;3.75;;;2.67;;
16837;SDS011;19510;54.486;9.046;2023-10-09T02:45:13;4.03;;;2.53;;
16837;SDS011;19510;54.486;9.046;2023-10-09T04:29:45;3.28;;;2.47;;
16837;SDS011;19510;54.486;9.046;2023-10-09T05:08:27;3.78;;;1.95;;
16837;SDS011;19510;54.486;9.046;2023-10-09T05:11:04;4.45;;;1.83;;
16837;SDS011;19510;54.486;9.046;2023-10-09T05:13:30;4.22;;;2.15;;
16837;SDS011;19510;54.486;9.046;2023-10-09T05:16:15;2.35;;;1.67;;
16837;SDS011;19510;54.486;9.046;2023-10-09T05:18:50;4.75;;;2.40;;
16837;SDS011;19510;54.486;9.046;2023-10-09T05:21:25;4.47;;;2.13;;
16837;SDS011;19510;54.486;9.046;2023-10-09T05:24:02;4.45;;;2.45;;
16837;SDS011;19510;54.486;9.046;2023-10-09T05:26:41;2.15;;;1.73;;
16837;SDS011;19510;54.486;9.046;2023-10-09T05:29:12;3.30;;;2.03;;
16837;SDS011;19510;54.486;9.046;2023-10-09T05:31:51;4.18;;;1.90;;
16837;SDS011;19510;54.486;9.046;2023-10-09T05:34:35;6.15;;;1.88;;
16837;SDS011;19510;54.486;9.046;2023-10-09T05:37:19;3.70;;;1.98;;
16837;SDS011;19510;54.486;9.046;2023-10-09T05:39:57;3.28;;;1.83;;
16837;SDS011;19510;54.486;9.046;2023-10-09T05:42:36;5.55;;;2.40;;
16837;SDS011;19510;54.486;9.046;2023-10-09T05:45:09;2.60;;;1.80;;
16837;SDS011;19510;54.486;9.046;2023-10-09T05:48:08;3.53;;;2.50;;
16837;SDS011;19510;54.486;9.046;2023-10-09T05:50:42;10.65;;;1.98;;
16837;SDS011;19510;54.486;9.046;2023-10-09T05:53:29;2.53;;;1.77;;
16837;SDS011;19510;54.486;9.046;2023-10-09T05:56:13;3.88;;;1.90;;
16837;SDS011;19510;54.486;9.046;2023-10-09T05:58:57;5.25;;;2.50;;
16837;SDS011;19510;54.486;9.046;2023-10-09T06:01:52;1.98;;;1.80;;
16837;SDS011;19510;54.486;9.046;2023-10-09T06:04:36;3.95;;;1.95;;
16837;SDS011;19510;54.486;9.046;2023-10-09T06:07:20;5.18;;;2.28;;
16837;SDS011;19510;54.486;9.046;2023-10-09T06:10:06;4.00;;;1.95;;
16837;SDS011;19510;54.486;9.046;2023-10-09T06:12:52;3.85;;;1.80;;
16837;SDS011;19510;54.486;9.046;2023-10-09T06:15:28;4.38;;;2.03;;
16837;SDS011;19510;54.486;9.046;2023-10-09T06:18:16;3.20;;;1.92;;
16837;SDS011;19510;54.486;9.046;2023-10-09T06:20:51;6.60;;;2.10;;
16837;SDS011;19510;54.486;9.046;2023-10-09T06:23:31;3.75;;;2.42;;
16837;SDS011;19510;54.486;9.046;2023-10-09T06:26:34;2.20;;;2.00;;
16837;SDS011;19510;54.486;9.046;2023-10-09T06:28:59;4.80;;;3.10;;
16837;SDS011;19510;54.486;9.046;2023-10-09T06:31:40;4.78;;;2.28;;
16837;SDS011;19510;54.486;9.046;2023-10-09T06:34:41;2.55;;;1.73;;
16837;SDS011;19510;54.486;9.046;2023-10-09T06:37:10;4.07;;;2.25;;
16837;SDS011;19510;54.486;9.046;2023-10-09T06:39:48;4.25;;;2.35;;
16837;SDS011;19510;54.486;9.046;2023-10-09T06:42:23;3.53;;;2.28;;
16837;SDS011;19510;54.486;9.046;2023-10-09T06:45:02;4.82;;;2.22;;
16837;SDS011;19510;54.486;9.046;2023-10-09T06:47:33;2.75;;;2.17;;
16837;SDS011;19510;54.486;9.046;2023-10-09T06:50:18;3.75;;;2.15;;
16837;SDS011;19510;54.486;9.046;2023-10-09T06:52:50;2.08;;;1.88;;
16837;SDS011;19510;54.486;9.046;2023-10-09T06:55:23;2.90;;;1.92;;
16837;SDS011;19510;54.486;9.046;2023-10-09T06:58:00;5.18;;;1.92;;
16837;SDS011;19510;54.486;9.046;2023-10-09T07:00:29;4.25;;;2.13;;
16837;SDS011;19510;54.486;9.046;2023-10-09T07:03:33;5.00;;;2.10;;
16837;SDS011;19510;54.486;9.046;2023-10-09T07:06:02;5.07;;;1.95;;
16837;SDS011;19510;54.486;9.046;2023-10-09T07:08:35;3.70;;;2.42;;
16837;SDS011;19510;54.486;9.046;2023-10-09T07:11:04;3.90;;;1.73;;
16837;SDS011;19510;54.486;9.046;2023-10-09T07:14:10;3.10;;;2.00;;
16837;SDS011;19510;54.486;9.046;2023-10-09T07:17:06;3.22;;;2.05;;
16837;SDS011;19510;54.486;9.046;2023-10-09T07:19:53;3.70;;;2.00;;
16837;SDS011;19510;54.486;9.046;2023-10-09T07:22:19;2.75;;;1.90;;
16837;SDS011;19510;54.486;9.046;2023-10-09T07:27:34;10.57;;;6.82;;
16837;SDS011;19510;54.486;9.046;2023-10-09T07:30:10;3.38;;;2.50;;
16837;SDS011;19510;54.486;9.046;2023-10-09T07:32:59;2.67;;;1.83;;
16837;SDS011;19510;54.486;9.046;2023-10-09T07:35:36;4.38;;;2.10;;
16837;SDS011;19510;54.486;9.046;2023-10-09T07:38:24;3.95;;;1.77;;
16837;SDS011;19510;54.486;9.046;2023-10-09T07:40:54;1.73;;;1.63;;
16837;SDS011;19510;54.486;9.046;2023-10-09T07:43:28;2.70;;;1.90;;
16837;SDS011;19510;54.486;9.046;2023-10-09T07:46:03;2.38;;;2.05;;
16837;SDS011;19510;54.486;9.046;2023-10-09T07:48:52;2.42;;;1.83;;
16837;SDS011;19510;54.486;9.046;2023-10-09T07:51:22;2.25;;;1.67;;
16837;SDS011;19510;54.486;9.046;2023-10-09T07:53:55;3.30;;;2.03;;
16837;SDS011;19510;54.486;9.046;2023-10-09T07:56:34;3.03;;;2.08;;
16837;SDS011;19510;54.486;9.046;2023-10-09T07:59:12;2.97;;;1.85;;
16837;SDS011;19510;54.486;9.046;2023-10-09T08:04:19;2.67;;;1.52;;
16837;SDS011;19510;54.486;9.046;2023-10-09T08:07:24;2.53;;;1.70;;
16837;SDS011;19510;54.486;9.046;2023-10-09T08:09:59;2.50;;;1.77;;
16837;SDS011;19510;54.486;9.046;2023-10-09T08:12:44;2.55;;;1.48;;
16837;SDS011;19510;54.486;9.046;2023-10-09T08:15:16;2.67;;;1.80;;
16837;SDS011;19510;54.486;9.046;2023-10-09T08:17:50;2.53;;;1.95;;
16837;SDS011;19510;54.486;9.046;2023-10-09T08:20:24;2.65;;;2.10;;
16837;SDS011;19510;54.486;9.046;2023-10-09T08:23:01;4.00;;;1.90;;
16837;SDS011;19510;54.486;9.046;2023-10-09T08:25:32;3.67;;;1.90;;
16837;SDS011;19510;54.486;9.046;2023-10-09T08:28:20;2.50;;;1.58;;
16837;SDS011;19510;54.486;9.046;2023-10-09T08:31:17;1.48;;;1.23;;
16837;SDS011;19510;54.486;9.046;2023-10-09T08:34:10;1.90;;;1.55;;
16837;SDS011;19510;54.486;9.046;2023-10-09T08:36:48;3.05;;;1.85;;
16837;SDS011;19510;54.486;9.046;2023-10-09T08:39:17;4.88;;;1.50;;
16837;SDS011;19510;54.486;9.046;2023-10-09T08:41:50;2.08;;;1.90;;
16837;SDS011;19510;54.486;9.046;2023-10-09T08:44:17;2.53;;;1.85;;
16837;SDS011;19510;54.486;9.046;2023-10-09T08:46:47;2.85;;;2.22;;
16837;SDS011;19510;54.486;9.046;2023-10-09T08:49:14;2.67;;;1.88;;
16837;SDS011;19510;54.486;9.046;2023-10-09T08:51:39;2.05;;;1.50;;
16837;SDS011;19510;54.486;9.046;2023-10-09T08:54:07;2.00;;;1.65;;
16837;SDS011;19510;54.486;9.046;2023-10-09T08:56:36;1.60;;;1.48;;
16837;SDS011;19510;54.486;9.046;2023-10-09T08:59:04;1.50;;;1.40;;
16837;SDS011;19510;54.486;9.046;2023-10-09T09:01:30;2.17;;;1.80;;
16837;SDS011;19510;54.486;9.046;2023-10-09T09:03:59;2.97;;;1.90;;
16837;SDS011;19510;54.486;9.046;2023-10-09T09:06:27;3.22;;;2.78;;
16837;SDS011;19510;54.486;9.046;2023-10-09T09:09:12;4.10;;;2.50;;
16837;SDS011;19510;54.486;9.046;2023-10-09T09:11:41;1.58;;;1.48;;
16837;SDS011;19510;54.486;9.046;2023-10-09T09:14:14;3.15;;;1.40;;
16837;SDS011;19510;54.486;9.046;2023-10-09T09:16:44;1.60;;;1.50;;
16837;SDS011;19510;54.486;9.046;2023-10-09T09:19:13;1.90;;;1.60;;
16837;SDS011;19510;54.486;9.046;2023-10-09T09:24:19;1.58;;;1.42;;
16837;SDS011;19510;54.486;9.046;2023-10-09T09:26:48;1.63;;;1.50;;
16837;SDS011;19510;54.486;9.046;2023-10-09T09:29:46;1.67;;;1.40;;
16837;SDS011;19510;54.486;9.046;2023-10-09T09:32:27;1.63;;;1.50;;
16837;SDS011;19510;54.486;9.046;2023-10-09T09:35:03;2.10;;;1.55;;
16837;SDS011;19510;54.486;9.046;2023-10-09T09:37:34;1.90;;;1.70;;
16837;SDS011;19510;54.486;9.046;2023-10-09T09:40:08;2.65;;;1.80;;
16837;SDS011;19510;54.486;9.046;2023-10-09T09:42:53;2.30;;;1.77;;
16837;SDS011;19510;54.486;9.046;2023-10-09T09:45:41;2.10;;;1.90;;
16837;SDS011;19510;54.486;9.046;2023-10-09T09:48:32;2.42;;;2.00;;
16837;SDS011;19510;54.486;9.046;2023-10-09T09:50:57;2.78;;;2.35;;
16837;SDS011;19510;54.486;9.046;2023-10-09T09:53:23;1.73;;;1.58;;
16837;SDS011;19510;54.486;9.046;2023-10-09T09:55:50;1.70;;;1.60;;
16837;SDS011;19510;54.486;9.046;2023-10-09T09:58:28;2.25;;;1.65;;
16837;SDS011;19510;54.486;9.046;2023-10-09T10:01:07;1.90;;;1.42;;
16837;SDS011;19510;54.486;9.046;2023-10-09T10:03:52;2.78;;;1.50;;
16837;SDS011;19510;54.486;9.046;2023-10-09T10:06:25;1.60;;;1.50;;
16837;SDS011;19510;54.486;9.046;2023-10-09T10:08:53;2.25;;;1.70;;
16837;SDS011;19510;54.486;9.046;2023-10-09T10:14:11;2.58;;;1.75;;
16837;SDS011;19510;54.486;9.046;2023-10-09T10:17:08;1.73;;;1.63;;
16837;SDS011;19510;54.486;9.046;2023-10-09T10:25:44;1.55;;;1.20;;
16837;SDS011;19510;54.486;9.046;2023-10-09T10:28:24;1.67;;;1.58;;
16837;SDS011;19510;54.486;9.046;2023-10-09T10:31:00;1.45;;;1.35;;
16837;SDS011;19510;54.486;9.046;2023-10-09T10:36:18;1.52;;;1.42;;
16837;SDS011;19510;54.486;9.046;2023-10-09T10:38:55;2.05;;;1.30;;
16837;SDS011;19510;54.486;9.046;2023-10-09T10:41:56;2.10;;;1.60;;
16837;SDS011;19510;54.486;9.046;2023-10-09T10:44:28;2.25;;;1.40;;
16837;SDS011;19510;54.486;9.046;2023-10-09T10:47:07;1.63;;;1.52;;
16837;SDS011;19510;54.486;9.046;2023-10-09T10:49:52;1.70;;;1.60;;
16837;SDS011;19510;54.486;9.046;2023-10-09T10:52:36;1.63;;;1.52;;
16837;SDS011;19510;54.486;9.046;2023-10-09T10:55:16;1.52;;;1.42;;
16837;SDS011;19510;54.486;9.046;2023-10-09T10:57:56;1.80;;;1.65;;
16837;SDS011;19510;54.486;9.046;2023-10-09T11:00:38;1.80;;;1.70;;
16837;SDS011;19510;54.486;9.046;2023-10-09T11:03:23;1.52;;;1.42;;
16837;SDS011;19510;54.486;9.046;2023-10-09T11:06:03;2.03;;;1.80;;
16837;SDS011;19510;54.486;9.046;2023-10-09T11:08:43;1.88;;;1.77;;
16837;SDS011;19510;54.486;9.046;2023-10-09T11:11:19;1.60;;;1.50;;
16837;SDS011;19510;54.486;9.046;2023-10-09T11:13:45;1.95;;;1.83;;
16837;SDS011;19510;54.486;9.046;2023-10-09T11:16:19;1.88;;;1.77;;
16837;SDS011;19510;54.486;9.046;2023-10-09T11:19:00;2.28;;;1.80;;
16837;SDS011;19510;54.486;9.046;2023-10-09T11:21:37;1.90;;;1.70;;
16837;SDS011;19510;54.486;9.046;2023-10-09T11:24:07;1.92;;;1.80;;
16837;SDS011;19510;54.486;9.046;2023-10-09T11:26:51;1.77;;;1.67;;
16837;SDS011;19510;54.486;9.046;2023-10-09T11:29:21;2.20;;;2.00;;
16837;SDS011;19510;54.486;9.046;2023-10-09T11:32:06;1.88;;;1.77;;
16837;SDS011;19510;54.486;9.046;2023-10-09T11:34:42;2.10;;;1.90;;
16837;SDS011;19510;54.486;9.046;2023-10-09T11:37:17;2.15;;;1.95;;
16837;SDS011;19510;54.486;9.046;2023-10-09T11:39:59;2.53;;;2.30;;
16837;SDS011;19510;54.486;9.046;2023-10-09T11:42:29;2.33;;;2.13;;
16837;SDS011;19510;54.486;9.046;2023-10-09T11:45:19;2.85;;;1.98;;
16837;SDS011;19510;54.486;9.046;2023-10-09T11:47:57;2.28;;;1.85;;
16837;SDS011;19510;54.486;9.046;2023-10-09T11:50:46;1.70;;;1.60;;
16837;SDS011;19510;54.486;9.046;2023-10-09T11:53:16;1.60;;;1.50;;
16837;SDS011;19510;54.486;9.046;2023-10-09T11:55:45;1.52;;;1.42;;
16837;SDS011;19510;54.486;9.046;2023-10-09T11:58:16;1.50;;;1.25;;
16837;SDS011;19510;54.486;9.046;2023-10-09T12:00:55;1.70;;;1.30;;
16837;SDS011;19510;54.486;9.046;2023-10-09T12:03:29;6.70;;;4.30;;
16837;SDS011;19510;54.486;9.046;2023-10-09T12:05:58;1.60;;;1.50;;
16837;SDS011;19510;54.486;9.046;2023-10-09T12:08:37;1.20;;;1.10;;
16837;SDS011;19510;54.486;9.046;2023-10-09T12:11:05;2.35;;;1.67;;
16837;SDS011;19510;54.486;9.046;2023-10-09T12:13:36;1.60;;;1.50;;
16837;SDS011;19510;54.486;9.046;2023-10-09T12:16:07;1.35;;;1.15;;
16837;SDS011;19510;54.486;9.046;2023-10-09T12:18:34;1.20;;;1.10;;
16837;SDS011;19510;54.486;9.046;2023-10-09T12:21:01;0.57;;;0.57;;
16837;SDS011;19510;54.486;9.046;2023-10-09T12:23:30;1.20;;;1.10;;
16837;SDS011;19510;54.486;9.046;2023-10-09T12:29:23;0.88;;;0.80;;
16837;SDS011;19510;54.486;9.046;2023-10-09T12:31:54;0.95;;;0.77;;
16837;SDS011;19510;54.486;9.046;2023-10-09T12:34:24;0.88;;;0.70;;
16837;SDS011;19510;54.486;9.046;2023-10-09T12:36:54;0.85;;;0.70;;
16837;SDS011;19510;54.486;9.046;2023-10-09T12:39:22;0.95;;;0.70;;
16837;SDS011;19510;54.486;9.046;2023-10-09T12:41:48;0.60;;;0.60;;
16837;SDS011;19510;54.486;9.046;2023-10-09T12:44:18;0.65;;;0.60;;
16837;SDS011;19510;54.486;9.046;2023-10-09T12:50:25;1.10;;;0.80;;
16837;SDS011;19510;54.486;9.046;2023-10-09T12:52:59;0.60;;;0.60;;
16837;SDS011;19510;54.486;9.046;2023-10-09T12:55:35;0.70;;;0.70;;
16837;SDS011;19510;54.486;9.046;2023-10-09T12:58:08;0.77;;;0.77;;
16837;SDS011;19510;54.486;9.046;2023-10-09T13:00:37;0.75;;;0.75;;
16837;SDS011;19510;54.486;9.046;2023-10-09T13:03:09;0.60;;;0.60;;
16837;SDS011;19510;54.486;9.046;2023-10-09T13:05:51;0.80;;;0.80;;
16837;SDS011;19510;54.486;9.046;2023-10-09T13:08:22;1.13;;;0.70;;
16837;SDS011;19510;54.486;9.046;2023-10-09T13:11:05;1.00;;;0.88;;
16837;SDS011;19510;54.486;9.046;2023-10-09T13:13:42;0.77;;;0.77;;
16837;SDS011;19510;54.486;9.046;2023-10-09T13:16:12;0.80;;;0.80;;
16837;SDS011;19510;54.486;9.046;2023-10-09T13:18:45;1.05;;;0.95;;
16837;SDS011;19510;54.486;9.046;2023-10-09T13:23:57;0.85;;;0.80;;
16837;SDS011;19510;54.486;9.046;2023-10-09T13:26:23;1.00;;;0.90;;
16837;SDS011;19510;54.486;9.046;2023-10-09T13:28:49;0.90;;;0.90;;
16837;SDS011;19510;54.486;9.046;2023-10-09T13:31:19;1.70;;;1.00;;
16837;SDS011;19510;54.486;9.046;2023-10-09T13:33:46;0.82;;;0.82;;
16837;SDS011;19510;54.486;9.046;2023-10-09T13:36:13;1.45;;;1.10;;
16837;SDS011;19510;54.486;9.046;2023-10-09T13:39:05;3.15;;;1.10;;
16837;SDS011;19510;54.486;9.046;2023-10-09T13:41:51;1.65;;;1.23;;
16837;SDS011;19510;54.486;9.046;2023-10-09T13:47:41;1.73;;;1.30;;
16837;SDS011;19510;54.486;9.046;2023-10-09T13:50:11;1.33;;;1.20;;
16837;SDS011;19510;54.486;9.046;2023-10-09T13:52:38;1.55;;;1.20;;
16837;SDS011;19510;54.486;9.046;2023-10-09T13:55:05;1.20;;;1.10;;
16837;SDS011;19510;54.486;9.046;2023-10-09T13:57:41;1.30;;;1.20;;
16837;SDS011;19510;54.486;9.046;2023-10-09T14:00:11;1.75;;;1.30;;
16837;SDS011;19510;54.486;9.046;2023-10-09T14:02:42;2.10;;;1.30;;
16837;SDS011;19510;54.486;9.046;2023-10-09T14:05:08;1.92;;;1.33;;
16837;SDS011;19510;54.486;9.046;2023-10-09T14:07:34;2.20;;;1.50;;
16837;SDS011;19510;54.486;9.046;2023-10-09T14:10:00;1.55;;;1.30;;
16837;SDS011;19510;54.486;9.046;2023-10-09T14:12:42;2.40;;;1.52;;
16837;SDS011;19510;54.486;9.046;2023-10-09T14:15:09;4.03;;;1.67;;
16837;SDS011;19510;54.486;9.046;2023-10-09T14:17:42;1.77;;;1.40;;
16837;SDS011;19510;54.486;9.046;2023-10-09T14:20:08;4.70;;;1.40;;
16837;SDS011;19510;54.486;9.046;2023-10-09T14:22:52;3.50;;;1.60;;
16837;SDS011;19510;54.486;9.046;2023-10-09T14:25:18;2.70;;;1.50;;
16837;SDS011;19510;54.486;9.046;2023-10-09T14:27:46;3.05;;;1.67;;
16837;SDS011;19510;54.486;9.046;2023-10-09T14:30:18;2.35;;;1.48;;
16837;SDS011;19510;54.486;9.046;2023-10-09T14:32:57;2.95;;;2.00;;
16837;SDS011;19510;54.486;9.046;2023-10-09T14:35:25;2.67;;;1.80;;
16837;SDS011;19510;54.486;9.046;2023-10-09T14:37:55;3.17;;;1.73;;
16837;SDS011;19510;54.486;9.046;2023-10-09T14:40:21;2.65;;;1.48;;
16837;SDS011;19510;54.486;9.046;2023-10-09T14:42:55;1.83;;;1.60;;
16837;SDS011;19510;54.486;9.046;2023-10-09T14:45:23;3.10;;;1.75;;
16837;SDS011;19510;54.486;9.046;2023-10-09T14:47:51;2.10;;;1.30;;
16837;SDS011;19510;54.486;9.046;2023-10-09T14:50:19;2.00;;;1.58;;
16837;SDS011;19510;54.486;9.046;2023-10-09T14:52:47;1.73;;;1.30;;
16837;SDS011;19510;54.486;9.046;2023-10-09T14:55:15;2.38;;;1.70;;
16837;SDS011;19510;54.486;9.046;2023-10-09T14:57:46;1.83;;;1.40;;
16837;SDS011;19510;54.486;9.046;2023-10-09T15:00:15;1.63;;;1.50;;
16837;SDS011;19510;54.486;9.046;2023-10-09T15:02:47;3.00;;;1.13;;
16837;SDS011;19510;54.486;9.046;2023-10-09T15:05:16;2.50;;;1.55;;
16837;SDS011;19510;54.486;9.046;2023-10-09T15:07:42;1.88;;;1.48;;
16837;SDS011;19510;54.486;9.046;2023-10-09T15:10:08;1.60;;;1.50;;
16837;SDS011;19510;54.486;9.046;2023-10-09T15:12:34;3.42;;;1.60;;
16837;SDS011;19510;54.486;9.046;2023-10-09T15:15:07;3.80;;;1.88;;
16837;SDS011;19510;54.486;9.046;2023-10-09T15:17:42;2.58;;;1.75;;
16837;SDS011;19510;54.486;9.046;2023-10-09T15:20:13;2.38;;;1.88;;
16837;SDS011;19510;54.486;9.046;2023-10-09T15:22:43;1.75;;;1.42;;
16837;SDS011;19510;54.486;9.046;2023-10-09T15:25:09;1.45;;;1.30;;
16837;SDS011;19510;54.486;9.046;2023-10-09T15:27:42;3.67;;;1.63;;
16837;SDS011;19510;54.486;9.046;2023-10-09T15:30:08;1.70;;;1.27;;
16837;SDS011;19510;54.486;9.046;2023-10-09T15:32:39;1.17;;;1.08;;
16837;SDS011;19510;54.486;9.046;2023-10-09T15:35:06;1.70;;;1.55;;
16837;SDS011;19510;54.486;9.046;2023-10-09T15:37:37;3.15;;;1.95;;
16837;SDS011;19510;54.486;9.046;2023-10-09T15:40:32;4.00;;;1.67;;
16837;SDS011;19510;54.486;9.046;2023-10-09T15:43:02;2.00;;;1.60;;
16837;SDS011;19510;54.486;9.046;2023-10-09T15:45:30;2.15;;;1.95;;
16837;SDS011;19510;54.486;9.046;2023-10-09T15:47:56;1.75;;;1.60;;
16837;SDS011;19510;54.486;9.046;2023-10-09T15:50:39;3.25;;;2.00;;
16837;SDS011;19510;54.486;9.046;2023-10-09T15:53:17;4.55;;;1.70;;
16837;SDS011;19510;54.486;9.046;2023-10-09T15:56:12;3.22;;;1.98;;
16837;SDS011;19510;54.486;9.046;2023-10-09T15:58:40;2.75;;;2.08;;
16837;SDS011;19510;54.486;9.046;2023-10-09T16:01:12;2.00;;;1.88;;
16837;SDS011;19510;54.486;9.046;2023-10-09T16:03:42;3.65;;;2.17;;
16837;SDS011;19510;54.486;9.046;2023-10-09T16:06:19;6.20;;;4.40;;
16837;SDS011;19510;54.486;9.046;2023-10-09T16:09:05;2.97;;;2.33;;
16837;SDS011;19510;54.486;9.046;2023-10-09T16:11:40;2.55;;;2.20;;
16837;SDS011;19510;54.486;9.046;2023-10-09T16:14:06;3.55;;;2.65;;
16837;SDS011;19510;54.486;9.046;2023-10-09T16:16:34;2.30;;;2.10;;
16837;SDS011;19510;54.486;9.046;2023-10-09T16:19:06;4.15;;;2.20;;
16837;SDS011;19510;54.486;9.046;2023-10-09T16:21:34;4.90;;;2.35;;
16837;SDS011;19510;54.486;9.046;2023-10-09T16:24:01;3.78;;;2.80;;
16837;SDS011;19510;54.486;9.046;2023-10-09T16:26:26;3.75;;;2.55;;
16837;SDS011;19510;54.486;9.046;2023-10-09T16:28:53;4.55;;;2.80;;
16837;SDS011;19510;54.486;9.046;2023-10-09T16:31:19;3.53;;;2.45;;
16837;SDS011;19510;54.486;9.046;2023-10-09T16:33:45;4.07;;;2.55;;
16837;SDS011;19510;54.486;9.046;2023-10-09T16:36:12;6.05;;;3.20;;
16837;SDS011;19510;54.486;9.046;2023-10-09T16:38:41;3.10;;;2.50;;
16837;SDS011;19510;54.486;9.046;2023-10-09T16:41:08;4.50;;;2.85;;
16837;SDS011;19510;54.486;9.046;2023-10-09T16:43:37;3.75;;;2.72;;
16837;SDS011;19510;54.486;9.046;2023-10-09T16:46:06;3.63;;;2.33;;
16837;SDS011;19510;54.486;9.046;2023-10-09T16:48:36;4.72;;;2.90;;
16837;SDS011;19510;54.486;9.046;2023-10-09T16:51:05;4.22;;;2.60;;
16837;SDS011;19510;54.486;9.046;2023-10-09T16:53:34;3.17;;;2.80;;
16837;SDS011;19510;54.486;9.046;2023-10-09T16:56:03;4.00;;;2.25;;
16837;SDS011;19510;54.486;9.046;2023-10-09T16:58:38;3.60;;;2.92;;
16837;SDS011;19510;54.486;9.046;2023-10-09T17:01:06;2.95;;;2.50;;
16837;SDS011;19510;54.486;9.046;2023-10-09T17:03:38;4.22;;;3.30;;
16837;SDS011;19510;54.486;9.046;2023-10-09T17:06:08;4.10;;;3.03;;
16837;SDS011;19510;54.486;9.046;2023-10-09T17:08:36;4.63;;;3.10;;
16837;SDS011;19510;54.486;9.046;2023-10-09T17:11:08;3.58;;;2.90;;
16837;SDS011;19510;54.486;9.046;2023-10-09T17:13:44;4.47;;;2.47;;
16837;SDS011;19510;54.486;9.046;2023-10-09T17:16:16;4.50;;;2.92;;
16837;SDS011;19510;54.486;9.046;2023-10-09T17:18:47;4.03;;;3.10;;
16837;SDS011;19510;54.486;9.046;2023-10-09T17:21:13;3.40;;;2.50;;
16837;SDS011;19510;54.486;9.046;2023-10-09T17:23:43;3.50;;;2.97;;
16837;SDS011;19510;54.486;9.046;2023-10-09T17:26:12;3.90;;;2.80;;
16837;SDS011;19510;54.486;9.046;2023-10-09T17:28:39;4.35;;;2.90;;
16837;SDS011;19510;54.486;9.046;2023-10-09T17:31:06;4.57;;;2.92;;
16837;SDS011;19510;54.486;9.046;2023-10-09T17:33:32;4.93;;;3.42;;
16837;SDS011;19510;54.486;9.046;2023-10-09T17:36:05;6.43;;;3.25;;
16837;SDS011;19510;54.486;9.046;2023-10-09T17:38:32;4.22;;;2.90;;
16837;SDS011;19510;54.486;9.046;2023-10-09T17:40:58;4.57;;;2.95;;
16837;SDS011;19510;54.486;9.046;2023-10-09T17:43:27;5.60;;;2.97;;
16837;SDS011;19510;54.486;9.046;2023-10-09T17:45:55;4.60;;;3.15;;
16837;SDS011;19510;54.486;9.046;2023-10-09T17:48:21;3.17;;;2.67;;
16837;SDS011;19510;54.486;9.046;2023-10-09T17:50:47;5.70;;;3.08;;
16837;SDS011;19510;54.486;9.046;2023-10-09T17:53:13;4.47;;;3.00;;
16837;SDS011;19510;54.486;9.046;2023-10-09T17:55:39;5.68;;;4.03;;
16837;SDS011;19510;54.486;9.046;2023-10-09T17:58:10;7.72;;;4.43;;
16837;SDS011;19510;54.486;9.046;2023-10-09T18:00:37;6.05;;;3.20;;
16837;SDS011;19510;54.486;9.046;2023-10-09T18:03:07;5.43;;;3.38;;
16837;SDS011;19510;54.486;9.046;2023-10-09T18:05:34;7.57;;;4.03;;
16837;SDS011;19510;54.486;9.046;2023-10-09T18:08:00;8.32;;;4.60;;
16837;SDS011;19510;54.486;9.046;2023-10-09T18:12:59;8.43;;;4.60;;
16837;SDS011;19510;54.486;9.046;2023-10-09T18:15:28;6.40;;;4.30;;
16837;SDS011;19510;54.486;9.046;2023-10-09T18:17:57;7.65;;;4.35;;
16837;SDS011;19510;54.486;9.046;2023-10-09T18:20:24;9.23;;;6.13;;
16837;SDS011;19510;54.486;9.046;2023-10-09T18:22:51;8.65;;;4.82;;
16837;SDS011;19510;54.486;9.046;2023-10-09T18:25:17;6.88;;;5.20;;
16837;SDS011;19510;54.486;9.046;2023-10-09T18:27:44;9.15;;;5.20;;
16837;SDS011;19510;54.486;9.046;2023-10-09T18:30:11;8.27;;;5.40;;
16837;SDS011;19510;54.486;9.046;2023-10-09T18:32:37;9.70;;;6.10;;
16837;SDS011;19510;54.486;9.046;2023-10-09T18:35:04;10.05;;;6.25;;
16837;SDS011;19510;54.486;9.046;2023-10-09T18:37:32;9.73;;;5.75;;
16837;SDS011;19510;54.486;9.046;2023-10-09T18:39:57;12.05;;;6.80;;
16837;SDS011;19510;54.486;9.046;2023-10-09T18:42:24;10.18;;;5.97;;
16837;SDS011;19510;54.486;9.046;2023-10-09T18:44:49;11.68;;;6.28;;
16837;SDS011;19510;54.486;9.046;2023-10-09T18:47:15;10.68;;;6.45;;
16837;SDS011;19510;54.486;9.046;2023-10-09T18:49:44;12.80;;;6.95;;
16837;SDS011;19510;54.486;9.046;2023-10-09T18:52:10;12.18;;;6.45;;
16837;SDS011;19510;54.486;9.046;2023-10-09T18:54:36;12.68;;;6.95;;
16837;SDS011;19510;54.486;9.046;2023-10-09T18:57:04;12.82;;;7.70;;
16837;SDS011;19510;54.486;9.046;2023-10-09T18:59:30;16.40;;;7.63;;
16837;SDS011;19510;54.486;9.046;2023-10-09T19:01:56;14.48;;;6.90;;
16837;SDS011;19510;54.486;9.046;2023-10-09T19:04:22;18.40;;;7.80;;
16837;SDS011;19510;54.486;9.046;2023-10-09T19:06:48;15.18;;;6.90;;
16837;SDS011;19510;54.486;9.046;2023-10-09T19:09:16;10.77;;;7.00;;